sensor_id;sensor_type;location;lat;lon;timestamp;P1;durP1;ratioP1;P2;durP2;ratioP2
18140;SDS011;9196;49.194;12.526;2023-06-26T00:00:48;11.07;;;9.50;;
18140;SDS011;9196;49.194;12.526;2023-06-26T00:03:15;9.97;;;8.97;;
18140;SDS011;9196;49.194;12.526;2023-06-26T00:05:42;10.80;;;7.83;;
18140;SDS011;9196;49.194;12.526;2023-06-26T00:08:09;10.33;;;7.70;;
18140;SDS011;9196;49.194;12.526;2023-06-26T00:10:35;9.03;;;8.23;;
18140;SDS011;9196;49.194;12.526;2023-06-26T00:13:04;9.40;;;8.47;;
18140;SDS011;9196;49.194;12.526;2023-06-26T00:15:30;13.53;;;7.80;;
18140;SDS011;9196;49.194;12.526;2023-06-26T00:17:57;10.23;;;9.17;;
18140;SDS011;9196;49.194;12.526;2023-06-26T00:20:24;8.60;;;7.80;;
18140;SDS011;9196;49.194;12.526;2023-06-26T00:22:51;7.80;;;6.93;;
18140;SDS011;9196;49.194;12.526;2023-06-26T00:25:18;7.87;;;7.07;;
18140;SDS011;9196;49.194;12.526;2023-06-26T00:27:45;8.73;;;7.83;;
18140;SDS011;9196;49.194;12.526;2023-06-26T00:30:14;9.13;;;8.10;;
18140;SDS011;9196;49.194;12.526;2023-06-26T00:32:41;8.47;;;7.60;;
18140;SDS011;9196;49.194;12.526;2023-06-26T00:35:07;10.03;;;7.30;;
18140;SDS011;9196;49.194;12.526;2023-06-26T00:37:34;9.47;;;8.47;;
18140;SDS011;9196;49.194;12.526;2023-06-26T00:40:01;10.83;;;8.63;;
18140;SDS011;9196;49.194;12.526;2023-06-26T00:42:30;11.10;;;9.20;;
18140;SDS011;9196;49.194;12.526;2023-06-26T00:44:57;17.90;;;8.83;;
18140;SDS011;9196;49.194;12.526;2023-06-26T00:47:25;10.17;;;9.07;;
18140;SDS011;9196;49.194;12.526;2023-06-26T00:49:52;10.83;;;9.73;;
18140;SDS011;9196;49.194;12.526;2023-06-26T00:52:22;10.33;;;9.33;;
18140;SDS011;9196;49.194;12.526;2023-06-26T00:54:49;12.00;;;9.50;;
18140;SDS011;9196;49.194;12.526;2023-06-26T00:57:17;12.33;;;9.30;;
18140;SDS011;9196;49.194;12.526;2023-06-26T00:59:44;10.83;;;9.73;;
18140;SDS011;9196;49.194;12.526;2023-06-26T01:02:11;11.07;;;9.97;;
18140;SDS011;9196;49.194;12.526;2023-06-26T01:04:39;9.23;;;8.33;;
18140;SDS011;9196;49.194;12.526;2023-06-26T01:07:11;9.30;;;8.40;;
18140;SDS011;9196;49.194;12.526;2023-06-26T01:09:39;9.10;;;8.27;;
18140;SDS011;9196;49.194;12.526;2023-06-26T01:12:06;15.00;;;8.03;;
18140;SDS011;9196;49.194;12.526;2023-06-26T01:14:33;7.73;;;7.10;;
18140;SDS011;9196;49.194;12.526;2023-06-26T01:17:02;9.67;;;7.70;;
18140;SDS011;9196;49.194;12.526;2023-06-26T01:19:29;13.10;;;8.00;;
18140;SDS011;9196;49.194;12.526;2023-06-26T01:22:02;8.30;;;7.50;;
18140;SDS011;9196;49.194;12.526;2023-06-26T01:24:42;7.67;;;6.97;;
18140;SDS011;9196;49.194;12.526;2023-06-26T01:27:20;11.53;;;7.93;;
18140;SDS011;9196;49.194;12.526;2023-06-26T01:29:49;16.17;;;9.63;;
18140;SDS011;9196;49.194;12.526;2023-06-26T01:32:17;23.47;;;16.23;;
18140;SDS011;9196;49.194;12.526;2023-06-26T01:34:45;32.83;;;18.90;;
18140;SDS011;9196;49.194;12.526;2023-06-26T01:37:12;31.60;;;20.13;;
18140;SDS011;9196;49.194;12.526;2023-06-26T01:39:38;35.73;;;21.10;;
18140;SDS011;9196;49.194;12.526;2023-06-26T01:42:05;47.10;;;26.23;;
18140;SDS011;9196;49.194;12.526;2023-06-26T01:44:35;45.70;;;27.53;;
18140;SDS011;9196;49.194;12.526;2023-06-26T01:47:08;36.33;;;21.63;;
18140;SDS011;9196;49.194;12.526;2023-06-26T01:49:42;33.67;;;19.37;;
18140;SDS011;9196;49.194;12.526;2023-06-26T01:52:14;32.07;;;20.50;;
18140;SDS011;9196;49.194;12.526;2023-06-26T01:54:49;37.47;;;21.17;;
18140;SDS011;9196;49.194;12.526;2023-06-26T01:57:21;27.33;;;18.00;;
18140;SDS011;9196;49.194;12.526;2023-06-26T01:59:53;30.60;;;17.80;;
18140;SDS011;9196;49.194;12.526;2023-06-26T02:02:22;26.33;;;14.80;;
18140;SDS011;9196;49.194;12.526;2023-06-26T02:04:50;21.20;;;14.30;;
18140;SDS011;9196;49.194;12.526;2023-06-26T02:07:17;20.60;;;13.00;;
18140;SDS011;9196;49.194;12.526;2023-06-26T02:09:43;19.13;;;12.93;;
18140;SDS011;9196;49.194;12.526;2023-06-26T02:12:10;20.03;;;13.07;;
18140;SDS011;9196;49.194;12.526;2023-06-26T02:14:37;18.33;;;12.70;;
18140;SDS011;9196;49.194;12.526;2023-06-26T02:17:05;10.67;;;9.57;;
18140;SDS011;9196;49.194;12.526;2023-06-26T02:19:33;19.40;;;11.23;;
18140;SDS011;9196;49.194;12.526;2023-06-26T02:22:00;11.90;;;9.70;;
18140;SDS011;9196;49.194;12.526;2023-06-26T02:24:27;16.23;;;9.37;;
18140;SDS011;9196;49.194;12.526;2023-06-26T02:26:55;13.93;;;9.13;;
18140;SDS011;9196;49.194;12.526;2023-06-26T02:29:22;12.97;;;10.07;;
18140;SDS011;9196;49.194;12.526;2023-06-26T02:31:48;14.43;;;9.70;;
18140;SDS011;9196;49.194;12.526;2023-06-26T02:34:16;11.13;;;9.27;;
18140;SDS011;9196;49.194;12.526;2023-06-26T02:36:43;13.33;;;9.47;;
18140;SDS011;9196;49.194;12.526;2023-06-26T02:39:10;9.87;;;8.87;;
18140;SDS011;9196;49.194;12.526;2023-06-26T02:41:37;9.70;;;8.67;;
18140;SDS011;9196;49.194;12.526;2023-06-26T02:44:03;12.90;;;9.10;;
18140;SDS011;9196;49.194;12.526;2023-06-26T02:46:31;11.10;;;9.40;;
18140;SDS011;9196;49.194;12.526;2023-06-26T02:48:58;12.77;;;10.40;;
18140;SDS011;9196;49.194;12.526;2023-06-26T02:51:26;14.53;;;9.13;;
18140;SDS011;9196;49.194;12.526;2023-06-26T02:53:53;11.10;;;9.87;;
18140;SDS011;9196;49.194;12.526;2023-06-26T02:56:20;11.20;;;9.70;;
18140;SDS011;9196;49.194;12.526;2023-06-26T02:58:46;10.30;;;9.30;;
18140;SDS011;9196;49.194;12.526;2023-06-26T03:01:13;13.83;;;10.57;;
18140;SDS011;9196;49.194;12.526;2023-06-26T03:03:40;10.87;;;9.77;;
18140;SDS011;9196;49.194;12.526;2023-06-26T03:06:07;12.10;;;8.97;;
18140;SDS011;9196;49.194;12.526;2023-06-26T03:08:36;10.87;;;9.67;;
18140;SDS011;9196;49.194;12.526;2023-06-26T03:11:04;9.77;;;8.30;;
18140;SDS011;9196;49.194;12.526;2023-06-26T03:13:31;11.10;;;9.17;;
18140;SDS011;9196;49.194;12.526;2023-06-26T03:15:58;9.10;;;8.20;;
18140;SDS011;9196;49.194;12.526;2023-06-26T03:18:25;13.33;;;9.60;;
18140;SDS011;9196;49.194;12.526;2023-06-26T03:20:52;9.63;;;7.63;;
18140;SDS011;9196;49.194;12.526;2023-06-26T03:23:20;9.93;;;8.60;;
18140;SDS011;9196;49.194;12.526;2023-06-26T03:25:48;9.27;;;8.37;;
18140;SDS011;9196;49.194;12.526;2023-06-26T03:28:15;11.23;;;8.83;;
18140;SDS011;9196;49.194;12.526;2023-06-26T03:30:42;9.43;;;8.37;;
18140;SDS011;9196;49.194;12.526;2023-06-26T03:33:09;10.50;;;7.27;;
18140;SDS011;9196;49.194;12.526;2023-06-26T03:35:36;10.47;;;8.73;;
18140;SDS011;9196;49.194;12.526;2023-06-26T03:38:03;15.33;;;11.13;;
18140;SDS011;9196;49.194;12.526;2023-06-26T03:40:30;14.73;;;11.47;;
18140;SDS011;9196;49.194;12.526;2023-06-26T03:42:58;15.50;;;12.90;;
18140;SDS011;9196;49.194;12.526;2023-06-26T03:45:25;17.20;;;13.70;;
18140;SDS011;9196;49.194;12.526;2023-06-26T03:47:52;10.90;;;9.77;;
18140;SDS011;9196;49.194;12.526;2023-06-26T03:50:19;11.43;;;9.40;;
18140;SDS011;9196;49.194;12.526;2023-06-26T03:52:46;12.63;;;9.10;;
18140;SDS011;9196;49.194;12.526;2023-06-26T03:55:12;9.80;;;8.90;;
18140;SDS011;9196;49.194;12.526;2023-06-26T03:57:39;9.57;;;8.60;;
18140;SDS011;9196;49.194;12.526;2023-06-26T04:00:08;10.93;;;9.30;;
18140;SDS011;9196;49.194;12.526;2023-06-26T04:02:37;8.70;;;7.63;;
18140;SDS011;9196;49.194;12.526;2023-06-26T04:05:05;12.50;;;8.70;;
18140;SDS011;9196;49.194;12.526;2023-06-26T04:07:32;10.00;;;9.00;;
18140;SDS011;9196;49.194;12.526;2023-06-26T04:09:59;10.13;;;9.10;;
18140;SDS011;9196;49.194;12.526;2023-06-26T04:12:26;8.57;;;7.70;;
18140;SDS011;9196;49.194;12.526;2023-06-26T04:14:53;9.20;;;8.17;;
18140;SDS011;9196;49.194;12.526;2023-06-26T04:17:21;9.33;;;8.43;;
18140;SDS011;9196;49.194;12.526;2023-06-26T04:19:48;13.10;;;8.77;;
18140;SDS011;9196;49.194;12.526;2023-06-26T04:22:15;9.40;;;8.60;;
18140;SDS011;9196;49.194;12.526;2023-06-26T04:24:41;9.60;;;8.70;;
18140;SDS011;9196;49.194;12.526;2023-06-26T04:27:08;9.73;;;8.73;;
18140;SDS011;9196;49.194;12.526;2023-06-26T04:29:35;11.60;;;7.83;;
18140;SDS011;9196;49.194;12.526;2023-06-26T04:32:02;7.93;;;7.13;;
18140;SDS011;9196;49.194;12.526;2023-06-26T04:34:31;9.93;;;7.90;;
18140;SDS011;9196;49.194;12.526;2023-06-26T04:37:00;10.63;;;9.50;;
18140;SDS011;9196;49.194;12.526;2023-06-26T04:39:29;12.10;;;8.77;;
18140;SDS011;9196;49.194;12.526;2023-06-26T04:41:56;9.70;;;8.70;;
18140;SDS011;9196;49.194;12.526;2023-06-26T04:44:23;11.27;;;8.37;;
18140;SDS011;9196;49.194;12.526;2023-06-26T04:46:50;14.43;;;8.70;;
18140;SDS011;9196;49.194;12.526;2023-06-26T04:49:17;9.27;;;7.87;;
18140;SDS011;9196;49.194;12.526;2023-06-26T04:51:46;10.37;;;9.40;;
18140;SDS011;9196;49.194;12.526;2023-06-26T04:54:13;11.57;;;9.63;;
18140;SDS011;9196;49.194;12.526;2023-06-26T04:56:40;10.93;;;8.80;;
18140;SDS011;9196;49.194;12.526;2023-06-26T04:59:08;10.60;;;9.60;;
18140;SDS011;9196;49.194;12.526;2023-06-26T05:01:38;9.10;;;8.30;;
18140;SDS011;9196;49.194;12.526;2023-06-26T05:04:05;12.80;;;9.70;;
18140;SDS011;9196;49.194;12.526;2023-06-26T05:06:35;10.60;;;9.43;;
18140;SDS011;9196;49.194;12.526;2023-06-26T05:09:03;9.93;;;9.03;;
18140;SDS011;9196;49.194;12.526;2023-06-26T05:11:30;10.50;;;9.40;;
18140;SDS011;9196;49.194;12.526;2023-06-26T05:13:57;10.10;;;9.10;;
18140;SDS011;9196;49.194;12.526;2023-06-26T05:16:24;9.13;;;8.23;;
18140;SDS011;9196;49.194;12.526;2023-06-26T05:18:51;9.27;;;8.40;;
18140;SDS011;9196;49.194;12.526;2023-06-26T05:21:19;11.13;;;8.17;;
18140;SDS011;9196;49.194;12.526;2023-06-26T05:23:46;9.00;;;8.10;;
18140;SDS011;9196;49.194;12.526;2023-06-26T05:26:16;9.10;;;8.10;;
18140;SDS011;9196;49.194;12.526;2023-06-26T05:28:44;10.00;;;8.23;;
18140;SDS011;9196;49.194;12.526;2023-06-26T05:31:13;10.00;;;9.00;;
18140;SDS011;9196;49.194;12.526;2023-06-26T05:33:40;20.63;;;8.23;;
18140;SDS011;9196;49.194;12.526;2023-06-26T05:36:10;10.93;;;8.90;;
18140;SDS011;9196;49.194;12.526;2023-06-26T05:38:39;8.40;;;7.20;;
18140;SDS011;9196;49.194;12.526;2023-06-26T05:41:06;9.17;;;8.27;;
18140;SDS011;9196;49.194;12.526;2023-06-26T05:43:35;10.63;;;9.03;;
18140;SDS011;9196;49.194;12.526;2023-06-26T05:46:02;10.40;;;9.23;;
18140;SDS011;9196;49.194;12.526;2023-06-26T05:48:29;8.67;;;7.87;;
18140;SDS011;9196;49.194;12.526;2023-06-26T05:50:56;10.57;;;8.73;;
18140;SDS011;9196;49.194;12.526;2023-06-26T05:53:23;10.07;;;9.00;;
18140;SDS011;9196;49.194;12.526;2023-06-26T05:55:50;15.37;;;9.37;;
18140;SDS011;9196;49.194;12.526;2023-06-26T05:58:18;12.03;;;8.90;;
18140;SDS011;9196;49.194;12.526;2023-06-26T06:00:49;14.60;;;10.67;;
18140;SDS011;9196;49.194;12.526;2023-06-26T06:03:15;12.60;;;9.07;;
18140;SDS011;9196;49.194;12.526;2023-06-26T06:05:42;11.07;;;9.97;;
18140;SDS011;9196;49.194;12.526;2023-06-26T06:08:09;11.73;;;10.00;;
18140;SDS011;9196;49.194;12.526;2023-06-26T06:10:36;9.77;;;8.53;;
18140;SDS011;9196;49.194;12.526;2023-06-26T06:13:03;9.40;;;8.50;;
18140;SDS011;9196;49.194;12.526;2023-06-26T06:15:30;8.97;;;8.07;;
18140;SDS011;9196;49.194;12.526;2023-06-26T06:17:58;9.47;;;8.60;;
18140;SDS011;9196;49.194;12.526;2023-06-26T06:20:25;13.50;;;8.70;;
18140;SDS011;9196;49.194;12.526;2023-06-26T06:22:51;22.63;;;7.67;;
18140;SDS011;9196;49.194;12.526;2023-06-26T06:25:18;8.40;;;7.60;;
18140;SDS011;9196;49.194;12.526;2023-06-26T06:27:45;8.90;;;8.03;;
18140;SDS011;9196;49.194;12.526;2023-06-26T06:30:12;9.60;;;7.80;;
18140;SDS011;9196;49.194;12.526;2023-06-26T06:32:39;12.70;;;7.80;;
18140;SDS011;9196;49.194;12.526;2023-06-26T06:35:08;8.23;;;7.43;;
18140;SDS011;9196;49.194;12.526;2023-06-26T06:37:35;9.30;;;7.70;;
18140;SDS011;9196;49.194;12.526;2023-06-26T06:40:02;8.43;;;7.63;;
18140;SDS011;9196;49.194;12.526;2023-06-26T06:42:31;9.40;;;7.40;;
18140;SDS011;9196;49.194;12.526;2023-06-26T06:44:58;12.83;;;7.13;;
18140;SDS011;9196;49.194;12.526;2023-06-26T06:47:25;8.03;;;7.33;;
18140;SDS011;9196;49.194;12.526;2023-06-26T06:49:51;8.80;;;6.83;;
18140;SDS011;9196;49.194;12.526;2023-06-26T06:52:20;7.50;;;6.70;;
18140;SDS011;9196;49.194;12.526;2023-06-26T06:54:53;8.60;;;7.70;;
18140;SDS011;9196;49.194;12.526;2023-06-26T06:57:20;8.70;;;7.87;;
18140;SDS011;9196;49.194;12.526;2023-06-26T06:59:47;7.50;;;6.67;;
18140;SDS011;9196;49.194;12.526;2023-06-26T07:02:14;9.33;;;7.60;;
18140;SDS011;9196;49.194;12.526;2023-06-26T07:04:41;7.18;;;6.47;;
18140;SDS011;9196;49.194;12.526;2023-06-26T07:07:08;7.53;;;6.33;;
18140;SDS011;9196;49.194;12.526;2023-06-26T07:09:36;8.70;;;7.80;;
18140;SDS011;9196;49.194;12.526;2023-06-26T07:12:03;9.63;;;8.07;;
18140;SDS011;9196;49.194;12.526;2023-06-26T07:14:31;12.63;;;7.40;;
18140;SDS011;9196;49.194;12.526;2023-06-26T07:16:57;8.93;;;8.03;;
18140;SDS011;9196;49.194;12.526;2023-06-26T07:19:24;8.73;;;7.40;;
18140;SDS011;9196;49.194;12.526;2023-06-26T07:21:51;7.10;;;6.50;;
18140;SDS011;9196;49.194;12.526;2023-06-26T07:24:18;7.63;;;6.93;;
18140;SDS011;9196;49.194;12.526;2023-06-26T07:26:46;7.90;;;7.20;;
18140;SDS011;9196;49.194;12.526;2023-06-26T07:29:13;7.33;;;6.63;;
18140;SDS011;9196;49.194;12.526;2023-06-26T07:31:40;7.07;;;6.47;;
18140;SDS011;9196;49.194;12.526;2023-06-26T07:34:07;8.57;;;7.77;;
18140;SDS011;9196;49.194;12.526;2023-06-26T07:36:34;8.50;;;7.50;;
18140;SDS011;9196;49.194;12.526;2023-06-26T07:39:01;9.20;;;7.80;;
18140;SDS011;9196;49.194;12.526;2023-06-26T07:41:28;7.67;;;6.97;;
18140;SDS011;9196;49.194;12.526;2023-06-26T07:43:57;8.23;;;7.53;;
18140;SDS011;9196;49.194;12.526;2023-06-26T07:46:24;7.37;;;6.67;;
18140;SDS011;9196;49.194;12.526;2023-06-26T07:48:59;11.33;;;7.17;;
18140;SDS011;9196;49.194;12.526;2023-06-26T07:51:25;8.73;;;7.93;;
18140;SDS011;9196;49.194;12.526;2023-06-26T07:53:52;8.23;;;6.03;;
18140;SDS011;9196;49.194;12.526;2023-06-26T07:56:19;7.63;;;6.93;;
18140;SDS011;9196;49.194;12.526;2023-06-26T07:58:46;8.33;;;7.43;;
18140;SDS011;9196;49.194;12.526;2023-06-26T08:01:14;7.47;;;6.87;;
18140;SDS011;9196;49.194;12.526;2023-06-26T08:03:41;8.30;;;6.67;;
18140;SDS011;9196;49.194;12.526;2023-06-26T08:06:08;7.43;;;6.73;;
18140;SDS011;9196;49.194;12.526;2023-06-26T08:08:34;8.07;;;6.83;;
18140;SDS011;9196;49.194;12.526;2023-06-26T08:11:01;9.40;;;6.40;;
18140;SDS011;9196;49.194;12.526;2023-06-26T08:13:28;6.23;;;5.70;;
18140;SDS011;9196;49.194;12.526;2023-06-26T08:15:55;6.23;;;5.73;;
18140;SDS011;9196;49.194;12.526;2023-06-26T08:18:23;9.43;;;5.77;;
18140;SDS011;9196;49.194;12.526;2023-06-26T08:20:50;8.73;;;6.57;;
18140;SDS011;9196;49.194;12.526;2023-06-26T08:23:17;7.47;;;6.77;;
18140;SDS011;9196;49.194;12.526;2023-06-26T08:25:44;11.00;;;6.97;;
18140;SDS011;9196;49.194;12.526;2023-06-26T08:28:12;7.57;;;6.07;;
18140;SDS011;9196;49.194;12.526;2023-06-26T08:30:39;8.77;;;5.90;;
18140;SDS011;9196;49.194;12.526;2023-06-26T08:33:06;6.73;;;6.17;;
18140;SDS011;9196;49.194;12.526;2023-06-26T08:35:38;6.03;;;5.20;;
18140;SDS011;9196;49.194;12.526;2023-06-26T08:38:05;8.27;;;5.97;;
18140;SDS011;9196;49.194;12.526;2023-06-26T08:40:34;6.33;;;5.83;;
18140;SDS011;9196;49.194;12.526;2023-06-26T08:43:02;6.27;;;5.77;;
18140;SDS011;9196;49.194;12.526;2023-06-26T08:45:29;6.57;;;5.97;;
18140;SDS011;9196;49.194;12.526;2023-06-26T08:47:56;6.67;;;6.17;;
18140;SDS011;9196;49.194;12.526;2023-06-26T08:50:27;5.80;;;5.40;;
18140;SDS011;9196;49.194;12.526;2023-06-26T08:52:59;6.20;;;5.67;;
18140;SDS011;9196;49.194;12.526;2023-06-26T08:55:32;5.70;;;5.20;;
18140;SDS011;9196;49.194;12.526;2023-06-26T08:58:02;8.67;;;6.07;;
18140;SDS011;9196;49.194;12.526;2023-06-26T09:00:29;10.80;;;6.03;;
18140;SDS011;9196;49.194;12.526;2023-06-26T09:02:56;6.10;;;5.60;;
18140;SDS011;9196;49.194;12.526;2023-06-26T09:05:24;6.20;;;5.70;;
18140;SDS011;9196;49.194;12.526;2023-06-26T09:07:52;5.77;;;5.27;;
18140;SDS011;9196;49.194;12.526;2023-06-26T09:10:22;5.20;;;4.80;;
18140;SDS011;9196;49.194;12.526;2023-06-26T09:12:48;7.90;;;6.10;;
18140;SDS011;9196;49.194;12.526;2023-06-26T09:15:16;5.37;;;4.90;;
18140;SDS011;9196;49.194;12.526;2023-06-26T09:17:47;8.53;;;6.43;;
18140;SDS011;9196;49.194;12.526;2023-06-26T09:20:14;5.93;;;5.43;;
18140;SDS011;9196;49.194;12.526;2023-06-26T09:22:42;6.60;;;5.97;;
18140;SDS011;9196;49.194;12.526;2023-06-26T09:25:13;6.87;;;6.00;;
18140;SDS011;9196;49.194;12.526;2023-06-26T09:27:41;7.07;;;6.47;;
18140;SDS011;9196;49.194;12.526;2023-06-26T09:30:10;5.40;;;5.00;;
18140;SDS011;9196;49.194;12.526;2023-06-26T09:32:37;6.10;;;5.60;;
18140;SDS011;9196;49.194;12.526;2023-06-26T09:35:04;6.30;;;5.70;;
18140;SDS011;9196;49.194;12.526;2023-06-26T09:37:31;6.03;;;5.53;;
18140;SDS011;9196;49.194;12.526;2023-06-26T09:40:00;9.23;;;5.40;;
18140;SDS011;9196;49.194;12.526;2023-06-26T09:42:28;6.27;;;5.77;;
18140;SDS011;9196;49.194;12.526;2023-06-26T09:44:56;6.00;;;5.50;;
18140;SDS011;9196;49.194;12.526;2023-06-26T09:47:23;7.23;;;6.53;;
18140;SDS011;9196;49.194;12.526;2023-06-26T09:49:50;6.07;;;5.53;;
18140;SDS011;9196;49.194;12.526;2023-06-26T09:52:17;6.83;;;6.23;;
18140;SDS011;9196;49.194;12.526;2023-06-26T09:54:45;6.70;;;6.00;;
18140;SDS011;9196;49.194;12.526;2023-06-26T09:57:12;5.73;;;5.23;;
18140;SDS011;9196;49.194;12.526;2023-06-26T09:59:41;7.20;;;6.00;;
18140;SDS011;9196;49.194;12.526;2023-06-26T10:02:10;6.60;;;6.00;;
18140;SDS011;9196;49.194;12.526;2023-06-26T10:04:37;7.43;;;6.70;;
18140;SDS011;9196;49.194;12.526;2023-06-26T10:07:05;7.07;;;6.40;;
18140;SDS011;9196;49.194;12.526;2023-06-26T10:09:37;5.73;;;5.23;;
18140;SDS011;9196;49.194;12.526;2023-06-26T10:12:09;6.30;;;5.70;;
18140;SDS011;9196;49.194;12.526;2023-06-26T10:14:42;7.40;;;5.80;;
18140;SDS011;9196;49.194;12.526;2023-06-26T10:17:10;6.90;;;6.10;;
18140;SDS011;9196;49.194;12.526;2023-06-26T10:19:43;11.93;;;6.80;;
18140;SDS011;9196;49.194;12.526;2023-06-26T10:22:11;6.80;;;5.47;;
18140;SDS011;9196;49.194;12.526;2023-06-26T10:24:41;8.23;;;6.10;;
18140;SDS011;9196;49.194;12.526;2023-06-26T10:27:11;6.37;;;5.83;;
18140;SDS011;9196;49.194;12.526;2023-06-26T10:29:42;6.50;;;6.00;;
18140;SDS011;9196;49.194;12.526;2023-06-26T10:32:13;6.10;;;5.60;;
18140;SDS011;9196;49.194;12.526;2023-06-26T10:34:41;7.60;;;5.10;;
18140;SDS011;9196;49.194;12.526;2023-06-26T10:37:09;6.57;;;5.83;;
18140;SDS011;9196;49.194;12.526;2023-06-26T10:39:46;5.50;;;5.00;;
18140;SDS011;9196;49.194;12.526;2023-06-26T10:42:14;5.80;;;5.30;;
18140;SDS011;9196;49.194;12.526;2023-06-26T10:44:42;7.03;;;6.10;;
18140;SDS011;9196;49.194;12.526;2023-06-26T10:47:10;6.53;;;5.93;;
18140;SDS011;9196;49.194;12.526;2023-06-26T10:49:40;6.60;;;6.10;;
18140;SDS011;9196;49.194;12.526;2023-06-26T10:52:13;7.23;;;5.77;;
18140;SDS011;9196;49.194;12.526;2023-06-26T10:54:40;6.70;;;6.10;;
18140;SDS011;9196;49.194;12.526;2023-06-26T10:57:07;5.43;;;5.03;;
18140;SDS011;9196;49.194;12.526;2023-06-26T10:59:33;6.30;;;5.70;;
18140;SDS011;9196;49.194;12.526;2023-06-26T11:02:01;10.70;;;5.70;;
18140;SDS011;9196;49.194;12.526;2023-06-26T11:04:36;6.90;;;6.20;;
18140;SDS011;9196;49.194;12.526;2023-06-26T11:07:14;7.10;;;5.37;;
18140;SDS011;9196;49.194;12.526;2023-06-26T11:09:53;6.50;;;5.90;;
18140;SDS011;9196;49.194;12.526;2023-06-26T11:15:04;6.87;;;6.27;;
18140;SDS011;9196;49.194;12.526;2023-06-26T11:17:33;6.60;;;6.00;;
18140;SDS011;9196;49.194;12.526;2023-06-26T11:20:02;6.10;;;5.40;;
18140;SDS011;9196;49.194;12.526;2023-06-26T11:22:31;7.23;;;6.27;;
18140;SDS011;9196;49.194;12.526;2023-06-26T11:24:59;5.93;;;5.43;;
18140;SDS011;9196;49.194;12.526;2023-06-26T11:27:31;7.40;;;6.10;;
18140;SDS011;9196;49.194;12.526;2023-06-26T11:29:58;7.70;;;7.00;;
18140;SDS011;9196;49.194;12.526;2023-06-26T11:32:26;10.43;;;6.90;;
18140;SDS011;9196;49.194;12.526;2023-06-26T11:34:54;7.00;;;6.30;;
18140;SDS011;9196;49.194;12.526;2023-06-26T11:37:22;6.73;;;6.13;;
18140;SDS011;9196;49.194;12.526;2023-06-26T11:39:51;6.60;;;6.03;;
18140;SDS011;9196;49.194;12.526;2023-06-26T11:42:18;6.97;;;6.33;;
18140;SDS011;9196;49.194;12.526;2023-06-26T11:44:46;7.37;;;6.77;;
18140;SDS011;9196;49.194;12.526;2023-06-26T11:47:13;7.47;;;6.77;;
18140;SDS011;9196;49.194;12.526;2023-06-26T11:49:42;7.07;;;6.47;;
18140;SDS011;9196;49.194;12.526;2023-06-26T11:52:09;7.70;;;6.93;;
18140;SDS011;9196;49.194;12.526;2023-06-26T11:54:37;8.23;;;6.30;;
18140;SDS011;9196;49.194;12.526;2023-06-26T11:57:05;6.93;;;5.93;;
18140;SDS011;9196;49.194;12.526;2023-06-26T11:59:33;6.93;;;6.20;;
18140;SDS011;9196;49.194;12.526;2023-06-26T12:02:01;10.83;;;6.73;;
18140;SDS011;9196;49.194;12.526;2023-06-26T12:04:31;7.90;;;7.10;;
18140;SDS011;9196;49.194;12.526;2023-06-26T12:07:00;7.90;;;7.10;;
18140;SDS011;9196;49.194;12.526;2023-06-26T12:09:32;6.70;;;6.10;;
18140;SDS011;9196;49.194;12.526;2023-06-26T12:12:01;7.13;;;6.43;;
18140;SDS011;9196;49.194;12.526;2023-06-26T12:14:30;7.20;;;6.50;;
18140;SDS011;9196;49.194;12.526;2023-06-26T12:17:03;7.30;;;6.60;;
18140;SDS011;9196;49.194;12.526;2023-06-26T12:19:31;6.53;;;6.03;;
18140;SDS011;9196;49.194;12.526;2023-06-26T12:21:58;7.27;;;6.57;;
18140;SDS011;9196;49.194;12.526;2023-06-26T12:24:25;7.47;;;6.77;;
18140;SDS011;9196;49.194;12.526;2023-06-26T12:26:53;6.20;;;5.60;;
18140;SDS011;9196;49.194;12.526;2023-06-26T12:29:28;6.97;;;6.27;;
18140;SDS011;9196;49.194;12.526;2023-06-26T12:31:57;6.50;;;6.00;;
18140;SDS011;9196;49.194;12.526;2023-06-26T12:34:26;7.00;;;6.27;;
18140;SDS011;9196;49.194;12.526;2023-06-26T12:36:59;7.27;;;6.57;;
18140;SDS011;9196;49.194;12.526;2023-06-26T12:39:27;10.67;;;6.83;;
18140;SDS011;9196;49.194;12.526;2023-06-26T12:41:55;6.33;;;5.83;;
18140;SDS011;9196;49.194;12.526;2023-06-26T12:44:26;6.67;;;6.10;;
18140;SDS011;9196;49.194;12.526;2023-06-26T12:46:56;8.47;;;5.67;;
18140;SDS011;9196;49.194;12.526;2023-06-26T12:49:30;12.20;;;6.20;;
18140;SDS011;9196;49.194;12.526;2023-06-26T12:51:58;12.20;;;8.10;;
18140;SDS011;9196;49.194;12.526;2023-06-26T12:54:25;6.97;;;6.40;;
18140;SDS011;9196;49.194;12.526;2023-06-26T12:56:52;6.17;;;5.67;;
18140;SDS011;9196;49.194;12.526;2023-06-26T12:59:19;6.30;;;5.80;;
18140;SDS011;9196;49.194;12.526;2023-06-26T13:01:48;9.03;;;5.97;;
18140;SDS011;9196;49.194;12.526;2023-06-26T13:04:15;7.20;;;6.07;;
18140;SDS011;9196;49.194;12.526;2023-06-26T13:06:42;7.50;;;6.50;;
18140;SDS011;9196;49.194;12.526;2023-06-26T13:09:09;7.60;;;6.90;;
18140;SDS011;9196;49.194;12.526;2023-06-26T13:11:36;7.33;;;5.80;;
18140;SDS011;9196;49.194;12.526;2023-06-26T13:14:03;6.43;;;5.93;;
18140;SDS011;9196;49.194;12.526;2023-06-26T13:16:30;7.57;;;6.80;;
18140;SDS011;9196;49.194;12.526;2023-06-26T13:18:59;6.60;;;5.90;;
18140;SDS011;9196;49.194;12.526;2023-06-26T13:21:26;7.40;;;6.50;;
18140;SDS011;9196;49.194;12.526;2023-06-26T13:23:53;6.43;;;5.83;;
18140;SDS011;9196;49.194;12.526;2023-06-26T13:26:20;6.90;;;6.20;;
18140;SDS011;9196;49.194;12.526;2023-06-26T13:28:48;7.00;;;6.30;;
18140;SDS011;9196;49.194;12.526;2023-06-26T13:31:15;6.77;;;6.07;;
18140;SDS011;9196;49.194;12.526;2023-06-26T13:33:42;5.97;;;5.47;;
18140;SDS011;9196;49.194;12.526;2023-06-26T13:36:11;9.10;;;7.07;;
18140;SDS011;9196;49.194;12.526;2023-06-26T13:38:38;7.40;;;6.80;;
18140;SDS011;9196;49.194;12.526;2023-06-26T13:41:05;6.83;;;6.23;;
18140;SDS011;9196;49.194;12.526;2023-06-26T13:43:32;6.70;;;6.00;;
18140;SDS011;9196;49.194;12.526;2023-06-26T13:45:59;8.20;;;5.63;;
18140;SDS011;9196;49.194;12.526;2023-06-26T13:48:27;7.00;;;6.10;;
18140;SDS011;9196;49.194;12.526;2023-06-26T13:50:55;6.70;;;6.13;;
18140;SDS011;9196;49.194;12.526;2023-06-26T13:53:23;7.57;;;6.50;;
18140;SDS011;9196;49.194;12.526;2023-06-26T13:55:50;6.07;;;5.53;;
18140;SDS011;9196;49.194;12.526;2023-06-26T13:58:17;6.97;;;6.37;;
18140;SDS011;9196;49.194;12.526;2023-06-26T14:00:44;6.23;;;5.73;;
18140;SDS011;9196;49.194;12.526;2023-06-26T14:03:11;9.03;;;6.00;;
18140;SDS011;9196;49.194;12.526;2023-06-26T14:05:37;9.53;;;5.77;;
18140;SDS011;9196;49.194;12.526;2023-06-26T14:08:05;6.47;;;5.97;;
18140;SDS011;9196;49.194;12.526;2023-06-26T14:10:35;6.97;;;6.27;;
18140;SDS011;9196;49.194;12.526;2023-06-26T14:13:02;7.50;;;6.80;;
18140;SDS011;9196;49.194;12.526;2023-06-26T14:15:29;8.47;;;6.30;;
18140;SDS011;9196;49.194;12.526;2023-06-26T14:17:56;6.33;;;5.80;;
18140;SDS011;9196;49.194;12.526;2023-06-26T14:20:24;5.77;;;5.37;;
18140;SDS011;9196;49.194;12.526;2023-06-26T14:22:52;6.47;;;5.87;;
18140;SDS011;9196;49.194;12.526;2023-06-26T14:25:19;6.27;;;5.73;;
18140;SDS011;9196;49.194;12.526;2023-06-26T14:27:47;6.07;;;5.57;;
18140;SDS011;9196;49.194;12.526;2023-06-26T14:30:14;8.53;;;5.77;;
18140;SDS011;9196;49.194;12.526;2023-06-26T14:32:41;6.20;;;5.70;;
18140;SDS011;9196;49.194;12.526;2023-06-26T14:35:07;6.60;;;5.90;;
18140;SDS011;9196;49.194;12.526;2023-06-26T14:37:35;6.03;;;5.57;;
18140;SDS011;9196;49.194;12.526;2023-06-26T14:40:04;6.87;;;6.27;;
18140;SDS011;9196;49.194;12.526;2023-06-26T14:42:32;6.73;;;6.20;;
18140;SDS011;9196;49.194;12.526;2023-06-26T14:45:00;6.53;;;5.90;;
18140;SDS011;9196;49.194;12.526;2023-06-26T14:47:27;8.27;;;6.53;;
18140;SDS011;9196;49.194;12.526;2023-06-26T14:49:54;5.47;;;4.90;;